sensor_id;sensor_type;location;lat;lon;timestamp;pressure;altitude;pressure_sealevel;temperature;humidity
54666;BME280;40566;50.006;36.180;2023-07-30T00:04:53;99216.09;;;18.36;74.12
54666;BME280;40566;50.006;36.180;2023-07-30T00:09:54;99214.53;;;18.33;74.38
54666;BME280;40566;50.006;36.180;2023-07-30T00:14:55;99214.44;;;18.35;74.37
54666;BME280;40566;50.006;36.180;2023-07-30T00:19:55;99218.19;;;18.43;74.48
54666;BME280;40566;50.006;36.180;2023-07-30T00:24:56;99210.16;;;18.47;74.24
54666;BME280;40566;50.006;36.180;2023-07-30T00:29:56;99209.63;;;18.41;74.21
54666;BME280;40566;50.006;36.180;2023-07-30T00:34:57;99214.75;;;18.43;74.10
54666;BME280;40566;50.006;36.180;2023-07-30T00:39:57;99205.13;;;18.31;74.44
54666;BME280;40566;50.006;36.180;2023-07-30T00:44:58;99214.03;;;18.15;75.16
54666;BME280;40566;50.006;36.180;2023-07-30T00:49:59;99217.47;;;18.03;75.75
54666;BME280;40566;50.006;36.180;2023-07-30T00:55:02;99191.91;;;18.07;75.68
54666;BME280;40566;50.006;36.180;2023-07-30T01:00:03;99204.69;;;18.11;75.27
54666;BME280;40566;50.006;36.180;2023-07-30T01:05:06;99204.47;;;18.14;75.08
54666;BME280;40566;50.006;36.180;2023-07-30T01:10:07;99208.78;;;18.15;74.96
54666;BME280;40566;50.006;36.180;2023-07-30T01:15:09;99202.09;;;18.11;75.12
54666;BME280;40566;50.006;36.180;2023-07-30T01:20:10;99209.31;;;18.08;75.30
54666;BME280;40566;50.006;36.180;2023-07-30T01:25:11;99219.56;;;17.98;75.48
54666;BME280;40566;50.006;36.180;2023-07-30T01:30:14;99223.00;;;17.98;75.52
54666;BME280;40566;50.006;36.180;2023-07-30T01:35:21;99217.53;;;17.89;76.11
54666;BME280;40566;50.006;36.180;2023-07-30T01:40:24;99218.13;;;17.79;76.39
54666;BME280;40566;50.006;36.180;2023-07-30T01:45:25;99227.66;;;17.80;76.57
54666;BME280;40566;50.006;36.180;2023-07-30T01:50:25;99235.03;;;17.88;76.30
54666;BME280;40566;50.006;36.180;2023-07-30T01:55:26;99227.06;;;17.90;75.99
54666;BME280;40566;50.006;36.180;2023-07-30T02:00:26;99237.53;;;17.90;75.95
54666;BME280;40566;50.006;36.180;2023-07-30T02:05:27;99232.22;;;17.91;76.12
54666;BME280;40566;50.006;36.180;2023-07-30T02:10:27;99238.38;;;17.90;75.98
54666;BME280;40566;50.006;36.180;2023-07-30T02:15:28;99241.00;;;17.90;76.08
54666;BME280;40566;50.006;36.180;2023-07-30T02:20:29;99239.44;;;17.88;76.41
54666;BME280;40566;50.006;36.180;2023-07-30T02:25:29;99237.53;;;17.90;76.34
54666;BME280;40566;50.006;36.180;2023-07-30T02:30:30;99235.41;;;17.82;77.04
54666;BME280;40566;50.006;36.180;2023-07-30T02:35:30;99245.03;;;17.81;77.22
54666;BME280;40566;50.006;36.180;2023-07-30T02:40:31;99235.41;;;17.82;77.32
54666;BME280;40566;50.006;36.180;2023-07-30T02:45:32;99237.00;;;17.84;77.30
54666;BME280;40566;50.006;36.180;2023-07-30T02:50:32;99240.91;;;17.92;77.24
54666;BME280;40566;50.006;36.180;2023-07-30T02:55:33;99251.69;;;18.00;76.82
54666;BME280;40566;50.006;36.180;2023-07-30T03:00:33;99244.47;;;18.03;76.94
54666;BME280;40566;50.006;36.180;2023-07-30T03:05:34;99252.22;;;18.05;77.16
54666;BME280;40566;50.006;36.180;2023-07-30T03:10:38;99240.38;;;18.12;77.19
54666;BME280;40566;50.006;36.180;2023-07-30T03:15:38;99261.88;;;18.17;77.05
54666;BME280;40566;50.006;36.180;2023-07-30T03:20:39;99262.28;;;18.24;77.04
54666;BME280;40566;50.006;36.180;2023-07-30T03:25:39;99256.84;;;18.27;77.01
54666;BME280;40566;50.006;36.180;2023-07-30T03:30:40;99255.91;;;18.28;77.25
54666;BME280;40566;50.006;36.180;2023-07-30T03:35:40;99253.91;;;18.32;77.18
54666;BME280;40566;50.006;36.180;2023-07-30T03:40:41;99260.44;;;18.39;77.35
54666;BME280;40566;50.006;36.180;2023-07-30T03:45:41;99274.03;;;18.44;77.47
54666;BME280;40566;50.006;36.180;2023-07-30T03:50:42;99269.22;;;18.51;77.63
54666;BME280;40566;50.006;36.180;2023-07-30T03:55:43;99276.75;;;18.55;77.57
54666;BME280;40566;50.006;36.180;2023-07-30T04:00:43;99282.13;;;18.67;77.56
54666;BME280;40566;50.006;36.180;2023-07-30T04:05:44;99285.78;;;18.77;77.59
54666;BME280;40566;50.006;36.180;2023-07-30T04:10:44;99300.91;;;18.86;77.39
54666;BME280;40566;50.006;36.180;2023-07-30T04:15:47;99272.28;;;18.96;77.07
54666;BME280;40566;50.006;36.180;2023-07-30T04:20:48;99294.56;;;19.01;77.16
54666;BME280;40566;50.006;36.180;2023-07-30T04:25:49;99292.28;;;19.10;76.89
54666;BME280;40566;50.006;36.180;2023-07-30T04:30:50;99310.81;;;19.19;77.02
54666;BME280;40566;50.006;36.180;2023-07-30T04:35:51;99311.09;;;19.28;76.92
54666;BME280;40566;50.006;36.180;2023-07-30T04:40:51;99314.75;;;19.38;76.53
54666;BME280;40566;50.006;36.180;2023-07-30T04:45:52;99314.19;;;19.46;76.36
54666;BME280;40566;50.006;36.180;2023-07-30T04:50:52;99319.63;;;19.55;76.09
54666;BME280;40566;50.006;36.180;2023-07-30T04:55:56;99304.06;;;19.65;75.59
54666;BME280;40566;50.006;36.180;2023-07-30T05:00:57;99325.13;;;19.76;75.46
54666;BME280;40566;50.006;36.180;2023-07-30T05:05:58;99334.03;;;19.87;75.16
54666;BME280;40566;50.006;36.180;2023-07-30T05:10:58;99341.19;;;19.96;74.76
54666;BME280;40566;50.006;36.180;2023-07-30T05:15:59;99338.00;;;20.04;74.57
54666;BME280;40566;50.006;36.180;2023-07-30T05:20:59;99346.78;;;20.15;74.27
54666;BME280;40566;50.006;36.180;2023-07-30T05:26:00;99344.19;;;20.27;73.95
54666;BME280;40566;50.006;36.180;2023-07-30T05:31:01;99346.16;;;20.36;73.96
54666;BME280;40566;50.006;36.180;2023-07-30T05:36:01;99343.63;;;20.46;73.33
54666;BME280;40566;50.006;36.180;2023-07-30T05:41:02;99345.69;;;20.53;72.83
54666;BME280;40566;50.006;36.180;2023-07-30T05:46:02;99350.28;;;20.63;73.00
54666;BME280;40566;50.006;36.180;2023-07-30T05:51:03;99338.13;;;20.73;72.40
54666;BME280;40566;50.006;36.180;2023-07-30T05:56:04;99340.16;;;20.80;71.90
54666;BME280;40566;50.006;36.180;2023-07-30T06:01:04;99335.03;;;20.90;71.75
54666;BME280;40566;50.006;36.180;2023-07-30T06:06:05;99334.34;;;20.99;70.91
54666;BME280;40566;50.006;36.180;2023-07-30T06:11:06;99338.63;;;21.12;70.31
54666;BME280;40566;50.006;36.180;2023-07-30T06:16:06;99337.06;;;21.20;70.08
54666;BME280;40566;50.006;36.180;2023-07-30T06:21:07;99335.50;;;21.29;69.69
54666;BME280;40566;50.006;36.180;2023-07-30T06:26:07;99336.34;;;21.41;69.64
54666;BME280;40566;50.006;36.180;2023-07-30T06:31:08;99336.31;;;21.52;68.89
54666;BME280;40566;50.006;36.180;2023-07-30T06:36:08;99341.84;;;21.61;68.48
54666;BME280;40566;50.006;36.180;2023-07-30T06:41:09;99345.28;;;21.72;67.94
54666;BME280;40566;50.006;36.180;2023-07-30T06:46:10;99347.16;;;21.82;67.03
54666;BME280;40566;50.006;36.180;2023-07-30T06:51:10;99355.25;;;21.90;66.76
54666;BME280;40566;50.006;36.180;2023-07-30T06:56:13;99358.13;;;21.98;66.05
54666;BME280;40566;50.006;36.180;2023-07-30T07:01:13;99341.81;;;22.04;65.17
54666;BME280;40566;50.006;36.180;2023-07-30T07:06:14;99337.06;;;22.19;65.13
54666;BME280;40566;50.006;36.180;2023-07-30T07:11:14;99348.31;;;22.32;64.03
54666;BME280;40566;50.006;36.180;2023-07-30T07:16:15;99347.06;;;22.36;63.84
54666;BME280;40566;50.006;36.180;2023-07-30T07:21:15;99335.66;;;22.47;63.69
54666;BME280;40566;50.006;36.180;2023-07-30T07:26:16;99335.84;;;22.55;63.10
54666;BME280;40566;50.006;36.180;2023-07-30T07:31:16;99335.03;;;22.65;62.39
54666;BME280;40566;50.006;36.180;2023-07-30T07:36:17;99333.69;;;22.70;61.57
54666;BME280;40566;50.006;36.180;2023-07-30T07:41:18;99332.91;;;22.80;61.50
54666;BME280;40566;50.006;36.180;2023-07-30T07:46:19;99326.06;;;22.98;60.24
54666;BME280;40566;50.006;36.180;2023-07-30T07:51:19;99322.53;;;23.09;60.07
54666;BME280;40566;50.006;36.180;2023-07-30T07:56:20;99322.84;;;23.25;59.53
54666;BME280;40566;50.006;36.180;2023-07-30T08:01:20;99328.75;;;23.48;57.92
54666;BME280;40566;50.006;36.180;2023-07-30T08:06:21;99326.50;;;23.44;57.56
54666;BME280;40566;50.006;36.180;2023-07-30T08:11:21;99330.97;;;23.43;57.92
54666;BME280;40566;50.006;36.180;2023-07-30T08:16:22;99332.38;;;23.57;56.99
54666;BME280;40566;50.006;36.180;2023-07-30T08:21:23;99325.44;;;23.56;56.75
54666;BME280;40566;50.006;36.180;2023-07-30T08:26:23;99322.81;;;23.66;56.67
54666;BME280;40566;50.006;36.180;2023-07-30T08:31:24;99319.38;;;23.94;55.21
54666;BME280;40566;50.006;36.180;2023-07-30T08:36:24;99325.50;;;23.95;55.23
54666;BME280;40566;50.006;36.180;2023-07-30T08:41:25;99334.97;;;24.07;55.44
54666;BME280;40566;50.006;36.180;2023-07-30T08:46:27;99312.00;;;24.37;54.66
54666;BME280;40566;50.006;36.180;2023-07-30T08:51:27;99331.56;;;24.64;54.07
54666;BME280;40566;50.006;36.180;2023-07-30T08:56:30;99308.66;;;24.35;54.36
54666;BME280;40566;50.006;36.180;2023-07-30T09:01:37;99313.41;;;24.22;54.52
54666;BME280;40566;50.006;36.180;2023-07-30T09:06:38;99322.47;;;24.09;54.33
54666;BME280;40566;50.006;36.180;2023-07-30T09:11:39;99321.34;;;24.12;53.79
54666;BME280;40566;50.006;36.180;2023-07-30T09:16:40;99312.97;;;23.87;54.29
54666;BME280;40566;50.006;36.180;2023-07-30T09:21:40;99324.94;;;24.01;54.45
54666;BME280;40566;50.006;36.180;2023-07-30T09:26:46;99307.09;;;24.32;52.70
54666;BME280;40566;50.006;36.180;2023-07-30T09:31:48;99302.66;;;24.43;51.65
54666;BME280;40566;50.006;36.180;2023-07-30T09:36:52;99292.91;;;24.63;51.17
54666;BME280;40566;50.006;36.180;2023-07-30T09:42:00;99293.25;;;24.78;51.41
54666;BME280;40566;50.006;36.180;2023-07-30T09:47:01;99313.63;;;25.05;50.69
54666;BME280;40566;50.006;36.180;2023-07-30T09:52:06;99311.19;;;24.84;50.21
54666;BME280;40566;50.006;36.180;2023-07-30T09:57:06;99309.66;;;24.81;50.86
54666;BME280;40566;50.006;36.180;2023-07-30T10:02:08;99306.47;;;25.43;49.18
54666;BME280;40566;50.006;36.180;2023-07-30T10:07:17;99310.09;;;25.14;50.01
54666;BME280;40566;50.006;36.180;2023-07-30T10:12:22;99308.47;;;26.12;47.40
54666;BME280;40566;50.006;36.180;2023-07-30T10:17:23;99308.38;;;29.70;40.36
54666;BME280;40566;50.006;36.180;2023-07-30T10:22:24;99300.31;;;31.58;37.53
54666;BME280;40566;50.006;36.180;2023-07-30T10:27:27;99296.38;;;28.64;42.87
54666;BME280;40566;50.006;36.180;2023-07-30T10:32:39;99297.91;;;27.25;45.33
54666;BME280;40566;50.006;36.180;2023-07-30T10:37:45;99306.47;;;26.77;46.37
54666;BME280;40566;50.006;36.180;2023-07-30T10:42:46;99320.75;;;26.58;47.27
54666;BME280;40566;50.006;36.180;2023-07-30T10:47:49;99322.63;;;26.91;45.66
54666;BME280;40566;50.006;36.180;2023-07-30T10:52:50;99312.41;;;26.70;46.22
54666;BME280;40566;50.006;36.180;2023-07-30T10:57:50;99326.25;;;26.38;45.79
54666;BME280;40566;50.006;36.180;2023-07-30T11:02:54;99311.44;;;26.54;46.30
54666;BME280;40566;50.006;36.180;2023-07-30T11:07:55;99321.44;;;26.86;46.13
54666;BME280;40566;50.006;36.180;2023-07-30T11:12:57;99320.28;;;28.47;43.15
54666;BME280;40566;50.006;36.180;2023-07-30T11:17:58;99321.28;;;31.40;38.62
54666;BME280;40566;50.006;36.180;2023-07-30T11:22:58;99324.31;;;31.52;37.86
54666;BME280;40566;50.006;36.180;2023-07-30T11:27:59;99320.34;;;28.56;42.85
54666;BME280;40566;50.006;36.180;2023-07-30T11:32:59;99317.19;;;27.36;44.72
54666;BME280;40566;50.006;36.180;2023-07-30T11:38:00;99314.69;;;26.65;45.70
54666;BME280;40566;50.006;36.180;2023-07-30T11:43:02;99308.41;;;26.04;46.30
54666;BME280;40566;50.006;36.180;2023-07-30T11:48:08;99303.50;;;26.09;46.10
54666;BME280;40566;50.006;36.180;2023-07-30T11:53:10;99311.59;;;26.08;46.41
54666;BME280;40566;50.006;36.180;2023-07-30T11:58:11;99301.81;;;26.08;46.55
54666;BME280;40566;50.006;36.180;2023-07-30T12:03:13;99297.66;;;26.06;46.61
54666;BME280;40566;50.006;36.180;2023-07-30T12:08:16;99292.69;;;26.03;46.64
54666;BME280;40566;50.006;36.180;2023-07-30T12:13:19;99294.16;;;25.87;47.39
54666;BME280;40566;50.006;36.180;2023-07-30T12:18:21;99290.78;;;26.13;46.34
54666;BME280;40566;50.006;36.180;2023-07-30T12:23:22;99301.56;;;26.64;45.42
54666;BME280;40566;50.006;36.180;2023-07-30T12:28:22;99299.66;;;26.30;45.72
54666;BME280;40566;50.006;36.180;2023-07-30T12:33:23;99287.91;;;27.19;43.75
54666;BME280;40566;50.006;36.180;2023-07-30T12:38:23;99289.75;;;28.02;41.87
54666;BME280;40566;50.006;36.180;2023-07-30T12:43:24;99289.75;;;28.11;41.57
54666;BME280;40566;50.006;36.180;2023-07-30T12:48:24;99289.25;;;27.23;43.09
54666;BME280;40566;50.006;36.180;2023-07-30T12:53:25;99289.47;;;26.43;44.18
54666;BME280;40566;50.006;36.180;2023-07-30T12:58:25;99297.44;;;26.17;44.25
54666;BME280;40566;50.006;36.180;2023-07-30T13:03:26;99291.63;;;25.96;44.64
54666;BME280;40566;50.006;36.180;2023-07-30T13:08:27;99291.13;;;25.82;45.46
54666;BME280;40566;50.006;36.180;2023-07-30T13:13:27;99287.72;;;25.90;45.04
54666;BME280;40566;50.006;36.180;2023-07-30T13:18:28;99277.53;;;25.95;44.88
54666;BME280;40566;50.006;36.180;2023-07-30T13:23:29;99280.69;;;26.17;44.25
54666;BME280;40566;50.006;36.180;2023-07-30T13:28:30;99279.94;;;26.06;44.95
54666;BME280;40566;50.006;36.180;2023-07-30T13:33:31;99278.03;;;26.17;44.72
54666;BME280;40566;50.006;36.180;2023-07-30T13:38:32;99274.41;;;26.18;44.89
54666;BME280;40566;50.006;36.180;2023-07-30T13:43:32;99272.53;;;25.92;44.57
54666;BME280;40566;50.006;36.180;2023-07-30T13:48:33;99273.34;;;25.75;45.35
54666;BME280;40566;50.006;36.180;2023-07-30T13:53:34;99279.84;;;25.62;46.10
54666;BME280;40566;50.006;36.180;2023-07-30T13:58:38;99276.81;;;25.57;45.12
54666;BME280;40566;50.006;36.180;2023-07-30T14:03:40;99272.19;;;25.41;45.36
54666;BME280;40566;50.006;36.180;2023-07-30T14:08:40;99273.41;;;25.47;45.37
54666;BME280;40566;50.006;36.180;2023-07-30T14:13:41;99268.44;;;25.44;45.69
54666;BME280;40566;50.006;36.180;2023-07-30T14:18:41;99263.06;;;25.36;45.62
54666;BME280;40566;50.006;36.180;2023-07-30T14:23:42;99256.38;;;25.31;45.98
54666;BME280;40566;50.006;36.180;2023-07-30T14:28:43;99250.59;;;25.18;45.57
54666;BME280;40566;50.006;36.180;2023-07-30T14:33:43;99251.31;;;25.10;45.77
54666;BME280;40566;50.006;36.180;2023-07-30T14:38:44;99243.81;;;25.06;46.31
54666;BME280;40566;50.006;36.180;2023-07-30T14:43:44;99242.63;;;25.00;46.35
54666;BME280;40566;50.006;36.180;2023-07-30T14:48:45;99245.00;;;24.93;46.76
54666;BME280;40566;50.006;36.180;2023-07-30T14:53:45;99249.06;;;24.88;46.67
54666;BME280;40566;50.006;36.180;2023-07-30T14:58:46;99248.81;;;24.81;46.49
54666;BME280;40566;50.006;36.180;2023-07-30T15:03:46;99245.09;;;24.74;47.27
54666;BME280;40566;50.006;36.180;2023-07-30T15:08:47;99232.31;;;24.69;46.71
54666;BME280;40566;50.006;36.180;2023-07-30T15:13:48;99246.66;;;24.67;46.79
54666;BME280;40566;50.006;36.180;2023-07-30T15:18:48;99254.78;;;24.56;46.97
54666;BME280;40566;50.006;36.180;2023-07-30T15:23:49;99254.91;;;24.54;46.96
54666;BME280;40566;50.006;36.180;2023-07-30T15:28:49;99259.91;;;24.47;47.58
54666;BME280;40566;50.006;36.180;2023-07-30T15:33:50;99250.31;;;24.37;48.47
54666;BME280;40566;50.006;36.180;2023-07-30T15:38:53;99245.63;;;24.21;49.72
54666;BME280;40566;50.006;36.180;2023-07-30T15:43:54;99250.94;;;24.11;49.47
54666;BME280;40566;50.006;36.180;2023-07-30T15:48:55;99259.88;;;24.00;50.13
54666;BME280;40566;50.006;36.180;2023-07-30T15:53:56;99254.16;;;23.95;49.60
54666;BME280;40566;50.006;36.180;2023-07-30T15:58:56;99257.94;;;23.92;50.05
54666;BME280;40566;50.006;36.180;2023-07-30T16:03:57;99254.47;;;23.92;50.71
54666;BME280;40566;50.006;36.180;2023-07-30T16:08:57;99255.72;;;23.88;50.45
54666;BME280;40566;50.006;36.180;2023-07-30T16:13:58;99248.19;;;23.83;50.91
54666;BME280;40566;50.006;36.180;2023-07-30T16:18:58;99244.03;;;23.81;51.77
54666;BME280;40566;50.006;36.180;2023-07-30T16:24:01;99247.91;;;23.76;51.80
54666;BME280;40566;50.006;36.180;2023-07-30T16:29:02;99238.44;;;23.64;52.66
54666;BME280;40566;50.006;36.180;2023-07-30T16:34:04;99242.91;;;23.54;53.12
54666;BME280;40566;50.006;36.180;2023-07-30T16:39:05;99232.31;;;23.34;54.05
54666;BME280;40566;50.006;36.180;2023-07-30T16:44:05;99247.72;;;23.29;54.11
54666;BME280;40566;50.006;36.180;2023-07-30T16:49:06;99244.38;;;23.17;54.41
54666;BME280;40566;50.006;36.180;2023-07-30T16:54:08;99242.00;;;23.05;54.26
54666;BME280;40566;50.006;36.180;2023-07-30T16:59:14;99237.31;;;22.87;54.73
54666;BME280;40566;50.006;36.180;2023-07-30T17:04:14;99246.31;;;22.75;55.16
54666;BME280;40566;50.006;36.180;2023-07-30T17:09:15;99245.09;;;22.58;55.67
54666;BME280;40566;50.006;36.180;2023-07-30T17:14:16;99250.03;;;22.42;56.21
54666;BME280;40566;50.006;36.180;2023-07-30T17:19:16;99250.50;;;22.26;56.48
54666;BME280;40566;50.006;36.180;2023-07-30T17:24:18;99263.00;;;22.12;57.18
54666;BME280;40566;50.006;36.180;2023-07-30T17:29:18;99277.31;;;21.98;57.63
54666;BME280;40566;50.006;36.180;2023-07-30T17:34:20;99261.56;;;21.87;58.24
54666;BME280;40566;50.006;36.180;2023-07-30T17:39:21;99264.09;;;21.77;58.73
54666;BME280;40566;50.006;36.180;2023-07-30T17:44:21;99275.88;;;21.62;59.24
54666;BME280;40566;50.006;36.180;2023-07-30T17:49:22;99278.44;;;21.52;59.66
54666;BME280;40566;50.006;36.180;2023-07-30T17:54:22;99289.72;;;21.43;60.46
54666;BME280;40566;50.006;36.180;2023-07-30T17:59:23;99290.06;;;21.27;61.11
54666;BME280;40566;50.006;36.180;2023-07-30T18:04:25;99293.03;;;21.23;61.44
54666;BME280;40566;50.006;36.180;2023-07-30T18:09:26;99291.88;;;21.15;61.57
54666;BME280;40566;50.006;36.180;2023-07-30T18:14:27;99282.06;;;21.06;61.77
54666;BME280;40566;50.006;36.180;2023-07-30T18:19:29;99275.63;;;20.99;61.96
54666;BME280;40566;50.006;36.180;2023-07-30T18:24:30;99276.09;;;20.93;62.06
54666;BME280;40566;50.006;36.180;2023-07-30T18:29:30;99268.59;;;20.88;62.15
54666;BME280;40566;50.006;36.180;2023-07-30T18:34:33;99259.38;;;20.83;62.73
54666;BME280;40566;50.006;36.180;2023-07-30T18:39:34;99279.34;;;20.74;63.19
54666;BME280;40566;50.006;36.180;2023-07-30T18:44:34;99279.94;;;20.66;63.20
54666;BME280;40566;50.006;36.180;2023-07-30T18:49:35;99286.50;;;20.60;63.21
54666;BME280;40566;50.006;36.180;2023-07-30T18:54:36;99287.06;;;20.53;63.01
54666;BME280;40566;50.006;36.180;2023-07-30T18:59:38;99273.19;;;20.51;63.55
54666;BME280;40566;50.006;36.180;2023-07-30T19:04:39;99284.28;;;20.43;63.45
54666;BME280;40566;50.006;36.180;2023-07-30T19:09:41;99283.69;;;20.39;63.87
54666;BME280;40566;50.006;36.180;2023-07-30T19:14:42;99286.44;;;20.38;64.25
54666;BME280;40566;50.006;36.180;2023-07-30T19:19:43;99287.59;;;20.34;65.04
54666;BME280;40566;50.006;36.180;2023-07-30T19:24:44;99295.13;;;20.27;65.06
54666;BME280;40566;50.006;36.180;2023-07-30T19:29:45;99294.75;;;20.20;65.30
54666;BME280;40566;50.006;36.180;2023-07-30T19:34:46;99296.78;;;20.17;65.57
54666;BME280;40566;50.006;36.180;2023-07-30T19:39:46;99296.50;;;20.09;65.53
54666;BME280;40566;50.006;36.180;2023-07-30T19:44:47;99301.25;;;20.04;65.85
54666;BME280;40566;50.006;36.180;2023-07-30T19:49:48;99309.25;;;20.02;66.50
54666;BME280;40566;50.006;36.180;2023-07-30T19:54:48;99315.66;;;19.98;66.81
54666;BME280;40566;50.006;36.180;2023-07-30T19:59:49;99327.34;;;19.94;67.04
54666;BME280;40566;50.006;36.180;2023-07-30T20:04:49;99326.63;;;19.92;66.93
54666;BME280;40566;50.006;36.180;2023-07-30T20:09:50;99330.22;;;19.91;66.86
54666;BME280;40566;50.006;36.180;2023-07-30T20:14:50;99337.47;;;19.87;67.00
54666;BME280;40566;50.006;36.180;2023-07-30T20:19:51;99331.50;;;19.85;66.96
54666;BME280;40566;50.006;36.180;2023-07-30T20:24:52;99324.81;;;19.81;67.30
54666;BME280;40566;50.006;36.180;2023-07-30T20:29:53;99334.06;;;19.74;67.58
54666;BME280;40566;50.006;36.180;2023-07-30T20:34:53;99338.47;;;19.73;67.86
54666;BME280;40566;50.006;36.180;2023-07-30T20:39:54;99331.75;;;19.69;68.00
54666;BME280;40566;50.006;36.180;2023-07-30T20:44:56;99328.59;;;19.64;68.29
54666;BME280;40566;50.006;36.180;2023-07-30T20:49:57;99313.09;;;19.61;68.54
54666;BME280;40566;50.006;36.180;2023-07-30T20:54:58;99320.34;;;19.57;68.71
54666;BME280;40566;50.006;36.180;2023-07-30T20:59:59;99310.88;;;19.55;68.94
54666;BME280;40566;50.006;36.180;2023-07-30T21:05:00;99316.59;;;19.49;69.16
54666;BME280;40566;50.006;36.180;2023-07-30T21:10:01;99328.25;;;19.45;69.35
54666;BME280;40566;50.006;36.180;2023-07-30T21:15:01;99333.94;;;19.38;69.59
54666;BME280;40566;50.006;36.180;2023-07-30T21:20:03;99323.88;;;19.32;69.64
54666;BME280;40566;50.006;36.180;2023-07-30T21:25:04;99322.41;;;19.28;69.97
54666;BME280;40566;50.006;36.180;2023-07-30T21:30:06;99325.03;;;19.28;69.87
54666;BME280;40566;50.006;36.180;2023-07-30T21:35:10;99321.78;;;19.25;70.08
54666;BME280;40566;50.006;36.180;2023-07-30T21:40:10;99324.03;;;19.18;70.25
54666;BME280;40566;50.006;36.180;2023-07-30T21:45:11;99313.97;;;19.12;70.51
54666;BME280;40566;50.006;36.180;2023-07-30T21:50:12;99318.59;;;19.08;70.51
54666;BME280;40566;50.006;36.180;2023-07-30T21:55:12;99318.88;;;19.03;70.76
54666;BME280;40566;50.006;36.180;2023-07-30T22:00:13;99320.78;;;19.01;70.96
54666;BME280;40566;50.006;36.180;2023-07-30T22:05:14;99321.75;;;19.00;71.32
54666;BME280;40566;50.006;36.180;2023-07-30T22:10:14;99317.44;;;18.99;71.16
54666;BME280;40566;50.006;36.180;2023-07-30T22:15:16;99313.16;;;18.98;71.17
54666;BME280;40566;50.006;36.180;2023-07-30T22:20:17;99315.88;;;18.97;70.96
54666;BME280;40566;50.006;36.180;2023-07-30T22:25:17;99310.84;;;18.94;71.50
54666;BME280;40566;50.006;36.180;2023-07-30T22:30:18;99310.13;;;18.92;71.40
54666;BME280;40566;50.006;36.180;2023-07-30T22:35:18;99315.47;;;18.90;71.61
54666;BME280;40566;50.006;36.180;2023-07-30T22:40:19;99319.13;;;18.88;71.65
54666;BME280;40566;50.006;36.180;2023-07-30T22:45:20;99311.59;;;18.83;71.79
54666;BME280;40566;50.006;36.180;2023-07-30T22:50:20;99308.13;;;18.82;72.03
54666;BME280;40566;50.006;36.180;2023-07-30T22:55:21;99299.84;;;18.89;72.18
54666;BME280;40566;50.006;36.180;2023-07-30T23:00:21;99295.22;;;18.92;72.20
54666;BME280;40566;50.006;36.180;2023-07-30T23:05:22;99294.50;;;18.90;72.42
54666;BME280;40566;50.006;36.180;2023-07-30T23:10:23;99297.84;;;18.92;72.76
54666;BME280;40566;50.006;36.180;2023-07-30T23:15:23;99286.94;;;18.86;72.83
54666;BME280;40566;50.006;36.180;2023-07-30T23:20:24;99289.97;;;18.92;72.77
54666;BME280;40566;50.006;36.180;2023-07-30T23:25:24;99288.28;;;18.91;72.81
54666;BME280;40566;50.006;36.180;2023-07-30T23:30:25;99295.22;;;18.92;73.26
54666;BME280;40566;50.006;36.180;2023-07-30T23:35:27;99278.53;;;18.93;73.23
54666;BME280;40566;50.006;36.180;2023-07-30T23:40:29;99296.69;;;18.96;73.10
54666;BME280;40566;50.006;36.180;2023-07-30T23:45:29;99288.00;;;18.96;73.44
54666;BME280;40566;50.006;36.180;2023-07-30T23:50:30;99304.22;;;19.01;73.33
54666;BME280;40566;50.006;36.180;2023-07-30T23:55:31;99285.88;;;19.01;73.48
